createdAt,value
2022-09-06T00:00:17.029Z,87.00
2022-09-06T00:02:44.962Z,87.00
2022-09-06T00:05:13.425Z,86.70
2022-09-06T00:07:42.352Z,86.40
2022-09-06T00:10:10.833Z,87.10
2022-09-06T00:12:38.446Z,84.30
2022-09-06T00:15:07.636Z,84.10
2022-09-06T00:17:34.685Z,86.60
2022-09-06T00:20:02.485Z,87.20
2022-09-06T00:22:29.538Z,86.80
2022-09-06T00:24:57.897Z,85.20
2022-09-06T00:27:25.064Z,84.40
2022-09-06T00:29:52.168Z,83.20
2022-09-06T00:32:21.557Z,83.10
2022-09-06T00:34:48.638Z,85.20
2022-09-06T00:37:15.668Z,87.00
2022-09-06T00:39:42.835Z,87.50
2022-09-06T00:42:12.957Z,87.90
2022-09-06T00:44:43.299Z,87.60
2022-09-06T00:47:10.456Z,87.20
2022-09-06T00:49:44.803Z,85.60
2022-09-06T00:52:17.035Z,84.80
2022-09-06T00:54:44.475Z,86.10
2022-09-06T00:57:16.931Z,87.20
2022-09-06T00:59:46.122Z,87.90
2022-09-06T01:02:13.630Z,87.30
2022-09-06T01:04:42.961Z,87.10
2022-09-06T01:07:20.678Z,87.20
2022-09-06T01:10:04.985Z,88.00
2022-09-06T01:12:45.191Z,88.10
2022-09-06T01:15:32.720Z,88.10
2022-09-06T01:18:12.562Z,87.90
2022-09-06T01:21:00.185Z,88.10
2022-09-06T01:24:10.726Z,88.60
2022-09-06T01:27:32.721Z,88.80
2022-09-06T01:30:06.041Z,89.10
2022-09-06T01:32:42.622Z,88.70
2022-09-06T01:35:19.114Z,88.90
2022-09-06T01:37:46.396Z,88.60
2022-09-06T01:40:13.543Z,88.30
2022-09-06T01:42:47.390Z,87.20
2022-09-06T01:45:20.112Z,87.30
2022-09-06T01:48:02.744Z,87.40
2022-09-06T01:50:53.758Z,87.30
2022-09-06T01:53:54.269Z,87.70
2022-09-06T01:56:35.895Z,88.70
2022-09-06T01:59:38.835Z,89.20
2022-09-06T02:02:18.641Z,89.80
2022-09-06T02:04:51.753Z,90.00
2022-09-06T02:07:24.728Z,90.40
2022-09-06T02:09:56.861Z,90.80
2022-09-06T02:12:30.415Z,90.70
2022-09-06T02:15:03.494Z,90.90
2022-09-06T02:17:34.904Z,91.10
2022-09-06T02:20:10.049Z,91.40
2022-09-06T02:22:43.252Z,91.70
2022-09-06T02:25:15.925Z,91.90
2022-09-06T02:27:43.155Z,92.00
2022-09-06T02:30:14.523Z,92.50
2022-09-06T02:32:48.448Z,92.80
2022-09-06T02:35:16.690Z,93.00
2022-09-06T02:37:44.442Z,93.60
2022-09-06T02:40:12.536Z,94.10
2022-09-06T02:42:42.758Z,94.70
2022-09-06T02:45:10.467Z,94.90
2022-09-06T02:47:37.459Z,95.30
2022-09-06T02:50:08.275Z,95.70
2022-09-06T02:52:35.437Z,96.60
2022-09-06T02:55:02.608Z,97.00
2022-09-06T02:57:32.750Z,96.60
2022-09-06T02:59:59.754Z,97.10
2022-09-06T03:02:29.203Z,97.00
2022-09-06T03:04:56.368Z,97.30
2022-09-06T03:07:27.475Z,97.60
2022-09-06T03:09:56.806Z,97.80
2022-09-06T03:12:23.851Z,97.60
2022-09-06T03:14:54.735Z,98.10
2022-09-06T03:17:25.292Z,97.80
2022-09-06T03:19:52.414Z,97.70
2022-09-06T03:22:19.393Z,97.90
2022-09-06T03:24:48.938Z,98.30
2022-09-06T03:27:19.236Z,98.90
2022-09-06T03:29:46.223Z,99.90
2022-09-06T03:32:13.334Z,99.90
2022-09-06T03:34:40.507Z,99.90
2022-09-06T03:37:08.071Z,99.90
2022-09-06T03:39:35.621Z,99.90
2022-09-06T03:42:04.277Z,99.90
2022-09-06T03:44:31.344Z,99.90
2022-09-06T03:46:58.669Z,99.90
2022-09-06T03:49:25.761Z,99.90
2022-09-06T03:51:52.766Z,99.90
2022-09-06T03:54:24.445Z,99.90
2022-09-06T03:56:51.598Z,99.90
2022-09-06T03:59:19.921Z,99.90
2022-09-06T04:01:50.115Z,99.90
2022-09-06T04:04:17.173Z,99.90
2022-09-06T04:06:44.149Z,99.90
2022-09-06T04:09:11.291Z,99.90
2022-09-06T04:11:39.009Z,99.90
2022-09-06T04:14:08.933Z,99.90
2022-09-06T04:16:37.402Z,99.90
2022-09-06T04:19:04.682Z,99.90
2022-09-06T04:21:31.832Z,99.90
2022-09-06T04:24:02.786Z,99.90
2022-09-06T04:26:30.025Z,99.90
2022-09-06T04:29:00.283Z,99.90
2022-09-06T04:31:30.638Z,99.90
2022-09-06T04:33:59.048Z,99.90
2022-09-06T04:36:29.950Z,99.90
2022-09-06T04:39:00.096Z,99.90
2022-09-06T04:41:27.126Z,99.90
2022-09-06T04:43:54.138Z,99.90
2022-09-06T04:46:25.058Z,99.90
2022-09-06T04:48:53.910Z,99.90
2022-09-06T04:51:23.901Z,99.90
2022-09-06T04:53:51.243Z,99.90
2022-09-06T04:56:21.827Z,99.90
2022-09-06T04:58:50.182Z,99.90
2022-09-06T05:01:17.757Z,99.90
2022-09-06T05:03:44.795Z,99.90
2022-09-06T05:06:14.100Z,99.90
2022-09-06T05:08:42.442Z,99.90
2022-09-06T05:11:17.209Z,99.90
2022-09-06T05:13:45.502Z,99.90
2022-09-06T05:16:12.752Z,99.90
2022-09-06T05:18:39.797Z,99.90
2022-09-06T05:21:09.668Z,99.90
2022-09-06T05:23:36.970Z,99.90
2022-09-06T05:26:06.171Z,99.90
2022-09-06T05:28:33.385Z,99.90
2022-09-06T05:31:08.649Z,99.90
2022-09-06T05:33:35.801Z,99.90
2022-09-06T05:36:03.511Z,99.90
2022-09-06T05:38:33.858Z,99.90
2022-09-06T05:41:01.102Z,99.90
2022-09-06T05:43:32.589Z,99.90
2022-09-06T05:45:59.990Z,99.90
2022-09-06T05:48:27.061Z,99.90
2022-09-06T05:51:02.743Z,99.90
2022-09-06T05:53:35.753Z,99.90
2022-09-06T05:56:03.818Z,99.90
2022-09-06T05:58:32.622Z,99.90
2022-09-06T06:01:08.424Z,99.90
2022-09-06T06:03:35.705Z,99.90
2022-09-06T06:06:02.704Z,99.90
2022-09-06T06:08:29.802Z,99.90
2022-09-06T06:11:00.125Z,99.90
2022-09-06T06:13:35.004Z,99.90
2022-09-06T06:16:05.788Z,99.90
2022-09-06T06:18:32.964Z,99.90
2022-09-06T06:21:11.517Z,99.90
2022-09-06T06:23:39.277Z,99.90
2022-09-06T06:26:10.571Z,99.90
2022-09-06T06:28:39.984Z,99.90
2022-09-06T06:31:10.105Z,99.90
2022-09-06T06:33:37.935Z,99.90
2022-09-06T06:36:07.486Z,99.90
2022-09-06T06:38:37.784Z,99.90
2022-09-06T06:41:07.280Z,99.90
2022-09-06T06:43:38.416Z,99.90
2022-09-06T06:46:09.238Z,99.90
2022-09-06T06:48:43.364Z,99.90
2022-09-06T06:51:12.219Z,99.90
2022-09-06T06:53:47.438Z,99.90
2022-09-06T06:56:16.798Z,99.90
2022-09-06T06:58:44.552Z,99.90
2022-09-06T07:01:13.790Z,99.90
2022-09-06T07:03:44.612Z,99.90
2022-09-06T07:06:12.410Z,99.90
2022-09-06T07:08:41.321Z,99.90
2022-09-06T07:11:10.696Z,99.90
2022-09-06T07:13:41.111Z,99.90
2022-09-06T07:16:15.532Z,99.90
2022-09-06T07:18:46.188Z,99.90
2022-09-06T07:26:39.022Z,99.90
2022-09-06T07:29:08.195Z,99.90
2022-09-06T07:34:25.972Z,99.90
2022-09-06T07:36:53.524Z,99.90
2022-09-06T07:39:23.436Z,99.90
2022-09-06T07:41:50.597Z,99.90
2022-09-06T07:44:24.063Z,99.90
2022-09-06T07:46:52.794Z,99.90
2022-09-06T07:49:19.938Z,99.90
2022-09-06T07:51:48.252Z,99.90
2022-09-06T07:54:31.499Z,99.90
2022-09-06T07:56:59.000Z,99.90
2022-09-06T07:59:27.645Z,99.90
2022-09-06T08:01:56.146Z,99.90
2022-09-06T08:04:25.454Z,99.90
2022-09-06T08:09:39.722Z,99.90
2022-09-06T08:12:13.017Z,99.90
2022-09-06T08:14:40.026Z,99.90
2022-09-06T08:17:08.503Z,99.70
2022-09-06T08:19:35.573Z,99.50
2022-09-06T08:22:02.682Z,99.30
2022-09-06T08:24:29.762Z,99.50
2022-09-06T08:26:59.034Z,99.40
2022-09-06T08:29:27.322Z,99.20
2022-09-06T08:31:57.581Z,99.30
2022-09-06T08:34:29.353Z,99.20
2022-09-06T08:36:59.161Z,98.60
2022-09-06T08:39:26.372Z,98.60
2022-09-06T08:41:58.461Z,98.70
2022-09-06T08:45:00.809Z,98.60
2022-09-06T08:47:20.257Z,98.30
2022-09-06T08:49:55.566Z,98.00
2022-09-06T08:53:16.624Z,98.10
2022-09-06T08:55:48.351Z,98.20
2022-09-06T08:58:39.824Z,97.80
2022-09-06T09:01:16.019Z,97.80
2022-09-06T09:03:44.194Z,97.90
2022-09-06T09:06:12.854Z,98.00
2022-09-06T09:08:48.413Z,98.10
2022-09-06T09:11:19.086Z,98.00
2022-09-06T09:13:55.692Z,97.80
2022-09-06T09:16:23.974Z,97.80
2022-09-06T09:18:54.313Z,97.40
2022-09-06T09:21:30.222Z,97.40
2022-09-06T09:24:02.684Z,97.60
2022-09-06T09:26:37.159Z,97.40
2022-09-06T09:29:07.668Z,97.50
2022-09-06T09:31:38.259Z,97.60
2022-09-06T09:34:11.063Z,97.20
2022-09-06T09:36:40.852Z,97.00
2022-09-06T09:39:12.202Z,97.30
2022-09-06T09:41:53.589Z,97.10
2022-09-06T09:44:28.200Z,97.40
2022-09-06T09:46:55.352Z,97.30
2022-09-06T09:49:29.669Z,97.00
2022-09-06T09:52:10.554Z,96.90
2022-09-06T09:54:40.834Z,96.90
2022-09-06T09:57:11.826Z,96.70
2022-09-06T09:59:44.761Z,96.80
2022-09-06T10:02:23.534Z,96.70
2022-09-06T10:04:53.420Z,96.90
2022-09-06T10:07:28.600Z,96.80
2022-09-06T10:10:01.287Z,96.60
2022-09-06T10:12:31.537Z,96.50
2022-09-06T10:15:02.423Z,96.10
2022-09-06T10:17:35.826Z,95.90
2022-09-06T10:20:08.092Z,95.30
2022-09-06T10:22:48.640Z,95.10
2022-09-06T10:25:38.669Z,95.00
2022-09-06T10:28:32.221Z,94.90
2022-09-06T10:31:43.467Z,95.20
2022-09-06T10:34:41.674Z,94.70
2022-09-06T10:37:27.674Z,94.70
2022-09-06T10:40:08.862Z,94.10
2022-09-06T10:42:44.065Z,93.80
2022-09-06T10:45:29.611Z,93.70
2022-09-06T10:48:02.434Z,93.80
2022-09-06T10:50:49.789Z,93.50
2022-09-06T10:53:34.540Z,93.20
2022-09-06T10:56:11.012Z,92.80
2022-09-06T11:01:44.837Z,92.50
2022-09-06T11:04:23.714Z,91.90
2022-09-06T11:06:55.752Z,92.20
2022-09-06T11:09:30.249Z,92.50
2022-09-06T11:12:07.987Z,92.40
2022-09-06T11:14:36.956Z,91.90
2022-09-06T11:17:13.075Z,91.80
2022-09-06T11:19:47.093Z,91.80
2022-09-06T11:22:52.982Z,91.90
2022-09-06T11:26:38.660Z,91.70
2022-09-06T11:29:10.139Z,91.40
2022-09-06T11:34:44.020Z,91.10
2022-09-06T11:37:26.301Z,91.20
2022-09-06T11:43:18.262Z,91.00
2022-09-06T11:45:51.847Z,90.90
2022-09-06T11:48:36.508Z,90.40
2022-09-06T11:54:24.978Z,90.80
2022-09-06T11:57:05.887Z,90.70
2022-09-06T11:59:52.512Z,90.70
2022-09-06T12:02:53.834Z,90.30
2022-09-06T12:05:26.123Z,89.90
2022-09-06T12:08:35.560Z,89.30
2022-09-06T12:11:36.546Z,88.00
2022-09-06T12:14:06.428Z,88.40
2022-09-06T12:17:24.907Z,89.00
2022-09-06T12:20:08.221Z,88.60
2022-09-06T12:22:58.745Z,88.60
2022-09-06T12:25:57.633Z,87.70
2022-09-06T12:28:47.117Z,87.70
2022-09-06T12:31:27.950Z,87.30
2022-09-06T12:33:59.112Z,86.60
2022-09-06T12:36:31.810Z,86.50
2022-09-06T12:39:01.228Z,86.30
2022-09-06T12:41:31.489Z,86.10
2022-09-06T12:44:04.794Z,86.00
2022-09-06T12:46:33.233Z,86.10
2022-09-06T12:49:09.444Z,86.30
2022-09-06T12:51:40.344Z,86.00
2022-09-06T12:54:20.938Z,85.70
2022-09-06T12:56:48.745Z,86.00
2022-09-06T12:59:19.337Z,83.70
2022-09-06T13:01:55.747Z,84.90
2022-09-06T13:04:34.003Z,85.00
2022-09-06T13:07:04.227Z,85.10
2022-09-06T13:09:33.262Z,84.50
2022-09-06T13:12:09.610Z,84.20
2022-09-06T13:14:38.512Z,83.60
2022-09-06T13:17:24.140Z,83.80
2022-09-06T13:19:51.217Z,82.80
2022-09-06T13:22:44.352Z,82.80
2022-09-06T13:25:25.474Z,83.20
2022-09-06T13:27:57.731Z,83.40
2022-09-06T13:30:42.488Z,83.80
2022-09-06T13:33:25.530Z,83.10
2022-09-06T13:36:08.258Z,82.20
2022-09-06T13:38:41.734Z,81.60
2022-09-06T13:41:40.621Z,81.90
2022-09-06T13:44:20.537Z,82.40
2022-09-06T13:46:53.281Z,82.80
2022-09-06T13:49:20.389Z,82.90
2022-09-06T13:51:47.354Z,83.30
2022-09-06T13:54:16.479Z,82.90
2022-09-06T13:56:48.421Z,82.10
2022-09-06T13:59:16.153Z,82.00
2022-09-06T14:01:46.358Z,81.70
2022-09-06T14:04:21.269Z,81.90
2022-09-06T14:06:49.222Z,81.80
2022-09-06T14:09:17.803Z,82.20
2022-09-06T14:11:48.280Z,82.80
2022-09-06T14:14:19.534Z,82.80
2022-09-06T14:16:49.857Z,82.80
2022-09-06T14:19:17.325Z,81.90
2022-09-06T14:21:44.375Z,81.50
2022-09-06T14:24:11.592Z,81.70
2022-09-06T14:26:42.913Z,82.40
2022-09-06T14:29:09.946Z,82.60
2022-09-06T14:31:38.854Z,82.20
2022-09-06T14:34:05.840Z,82.30
2022-09-06T14:36:34.507Z,82.30
2022-09-06T14:39:02.592Z,82.20
2022-09-06T14:41:30.002Z,82.30
2022-09-06T14:43:59.749Z,82.40
2022-09-06T14:46:28.650Z,82.70
2022-09-06T14:49:07.163Z,81.70
2022-09-06T14:51:35.617Z,81.60
2022-09-06T14:54:05.991Z,80.30
2022-09-06T14:56:43.117Z,80.10
2022-09-06T14:59:15.365Z,80.20
2022-09-06T15:01:47.879Z,76.20
2022-09-06T15:04:15.055Z,73.40
2022-09-06T15:06:47.192Z,72.30
2022-09-06T15:09:18.272Z,71.40
2022-09-06T15:11:51.352Z,68.40
2022-09-06T15:14:25.236Z,67.40
2022-09-06T15:16:58.067Z,66.50
2022-09-06T15:19:29.762Z,66.50
2022-09-06T15:22:01.876Z,66.40
2022-09-06T15:24:29.125Z,65.40
2022-09-06T15:26:57.086Z,65.30
2022-09-06T15:29:27.224Z,66.40
2022-09-06T15:31:57.336Z,67.40
2022-09-06T15:34:26.812Z,68.10
2022-09-06T15:36:57.053Z,69.50
2022-09-06T15:39:26.021Z,70.60
2022-09-06T15:41:57.977Z,71.30
2022-09-06T15:44:26.580Z,72.80
2022-09-06T15:46:57.781Z,74.00
2022-09-06T15:49:28.430Z,74.80
2022-09-06T15:51:56.517Z,76.60
2022-09-06T15:54:43.733Z,77.10
2022-09-06T15:57:11.143Z,78.20
2022-09-06T15:59:40.922Z,78.60
2022-09-06T16:02:08.645Z,77.90
2022-09-06T16:04:35.881Z,78.90
2022-09-06T16:07:03.150Z,79.70
2022-09-06T16:09:30.502Z,80.70
2022-09-06T16:11:57.842Z,81.80
2022-09-06T16:14:25.221Z,82.40
2022-09-06T16:16:54.837Z,82.90
2022-09-06T16:19:22.074Z,83.30
2022-09-06T16:21:49.121Z,81.90
2022-09-06T16:24:18.658Z,81.90
2022-09-06T16:26:46.665Z,81.90
2022-09-06T16:29:16.521Z,82.20
2022-09-06T16:31:47.156Z,82.80
2022-09-06T16:34:16.658Z,83.30
2022-09-06T16:36:44.148Z,84.40
2022-09-06T16:39:11.434Z,82.00
2022-09-06T16:41:43.296Z,80.70
2022-09-06T16:44:16.839Z,81.10
2022-09-06T16:46:44.986Z,82.10
2022-09-06T16:49:12.183Z,82.20
2022-09-06T16:51:40.996Z,81.00
2022-09-06T16:54:09.234Z,77.90
2022-09-06T16:56:36.983Z,77.30
2022-09-06T16:59:07.085Z,76.70
2022-09-06T17:01:41.886Z,80.40
2022-09-06T17:04:09.957Z,84.80
2022-09-06T17:06:44.363Z,90.50
2022-09-06T17:09:15.035Z,91.00
2022-09-06T17:11:47.010Z,91.70
2022-09-06T17:14:14.292Z,91.90
2022-09-06T17:17:00.534Z,94.90
2022-09-06T17:19:29.829Z,97.20
2022-09-06T17:22:00.074Z,97.40
2022-09-06T17:24:28.654Z,97.70
2022-09-06T17:26:55.940Z,98.40
2022-09-06T17:29:26.681Z,98.90
2022-09-06T17:31:54.128Z,99.00
2022-09-06T17:34:21.284Z,99.90
2022-09-06T17:36:48.554Z,99.60
2022-09-06T17:39:20.889Z,99.40
2022-09-06T17:41:54.307Z,99.00
2022-09-06T17:44:25.348Z,99.50
2022-09-06T17:49:40.570Z,99.90
2022-09-06T17:52:07.793Z,99.90
2022-09-06T17:54:34.892Z,99.90
2022-09-06T17:57:03.447Z,99.90
2022-09-06T17:59:35.136Z,99.90
2022-09-06T18:02:04.028Z,99.90
2022-09-06T18:04:31.106Z,99.90
2022-09-06T18:06:58.671Z,99.90
2022-09-06T18:09:26.610Z,99.90
2022-09-06T18:11:53.625Z,99.90
2022-09-06T18:14:22.206Z,99.90
2022-09-06T18:16:52.157Z,99.90
2022-09-06T18:19:19.717Z,99.90
2022-09-06T18:21:48.193Z,99.90
2022-09-06T18:24:16.032Z,99.90
2022-09-06T18:26:44.713Z,99.90
2022-09-06T18:29:14.796Z,99.90
2022-09-06T18:31:44.654Z,99.90
2022-09-06T18:34:12.515Z,99.90
2022-09-06T18:36:41.176Z,99.90
2022-09-06T18:39:08.732Z,99.90
2022-09-06T18:41:54.640Z,99.90
2022-09-06T18:44:24.821Z,99.90
2022-09-06T18:46:55.832Z,99.90
2022-09-06T18:49:26.441Z,99.90
2022-09-06T18:51:54.098Z,99.90
2022-09-06T18:54:21.358Z,99.90
2022-09-06T18:56:49.989Z,99.90
2022-09-06T18:59:17.571Z,99.90
2022-09-06T19:01:44.981Z,99.90
2022-09-06T19:04:13.845Z,99.90
2022-09-06T19:06:43.416Z,99.90
2022-09-06T19:09:15.401Z,99.90
2022-09-06T19:11:45.414Z,99.90
2022-09-06T19:14:18.019Z,99.90
2022-09-06T19:16:46.390Z,99.90
2022-09-06T19:19:14.994Z,99.90
2022-09-06T19:21:42.761Z,99.90
2022-09-06T19:24:11.914Z,99.90
2022-09-06T19:26:42.654Z,99.90
2022-09-06T19:29:17.746Z,99.90
2022-09-06T19:31:47.124Z,99.90
2022-09-06T19:34:17.007Z,99.90
2022-09-06T19:36:44.894Z,99.90
2022-09-06T19:39:15.901Z,99.90
2022-09-06T19:41:46.723Z,99.90
2022-09-06T19:44:14.944Z,99.90
2022-09-06T19:46:49.752Z,99.90
2022-09-06T19:49:19.626Z,99.90
2022-09-06T19:51:48.773Z,99.90
2022-09-06T19:54:16.995Z,99.90
2022-09-06T19:56:44.721Z,99.90
2022-09-06T19:59:13.263Z,99.90
2022-09-06T20:01:43.129Z,99.90
2022-09-06T20:04:12.443Z,99.90
2022-09-06T20:06:41.190Z,99.90
2022-09-06T20:09:10.135Z,99.90
2022-09-06T20:11:39.172Z,99.90
2022-09-06T20:14:06.635Z,99.90
2022-09-06T20:16:39.352Z,99.90
2022-09-06T20:19:08.547Z,99.90
2022-09-06T20:21:35.717Z,99.90
2022-09-06T20:24:04.875Z,99.90
2022-09-06T20:26:32.021Z,99.90
2022-09-06T20:29:02.503Z,99.90
2022-09-06T20:31:31.382Z,99.90
2022-09-06T20:34:00.625Z,99.90
2022-09-06T20:36:28.489Z,99.90
2022-09-06T20:38:55.938Z,99.90
2022-09-06T20:41:26.552Z,99.90
2022-09-06T20:43:55.098Z,99.90
2022-09-06T20:46:25.121Z,99.90
2022-09-06T20:48:52.655Z,99.90
2022-09-06T20:51:22.751Z,99.90
2022-09-06T20:53:53.719Z,99.90
2022-09-06T20:56:25.371Z,99.90
2022-09-06T20:58:55.581Z,99.90
2022-09-06T21:01:25.614Z,99.90
2022-09-06T21:03:55.244Z,99.90
2022-09-06T21:06:24.109Z,99.90
2022-09-06T21:08:51.877Z,99.90
2022-09-06T21:11:19.617Z,99.90
2022-09-06T21:13:51.634Z,99.90
2022-09-06T21:16:23.977Z,99.90
2022-09-06T21:18:53.299Z,99.90
2022-09-06T21:21:21.586Z,99.90
2022-09-06T21:23:49.335Z,99.90
2022-09-06T21:26:17.128Z,99.90
2022-09-06T21:28:49.711Z,99.90
2022-09-06T21:31:19.153Z,99.90
2022-09-06T21:33:52.427Z,99.90
2022-09-06T21:36:21.763Z,99.90
2022-09-06T21:38:50.806Z,99.90
2022-09-06T21:41:19.555Z,99.90
2022-09-06T21:43:47.187Z,99.90
2022-09-06T21:46:17.825Z,99.90
2022-09-06T21:48:47.053Z,99.90
2022-09-06T21:51:16.490Z,99.90
2022-09-06T21:53:45.618Z,99.90
2022-09-06T21:56:13.385Z,99.90
2022-09-06T21:58:41.108Z,99.90
2022-09-06T22:01:08.776Z,99.90
2022-09-06T22:03:41.773Z,99.90
2022-09-06T22:06:10.741Z,99.90
2022-09-06T22:08:38.755Z,99.90
2022-09-06T22:11:11.297Z,99.90
2022-09-06T22:13:38.800Z,99.90
2022-09-06T22:16:08.079Z,99.90
2022-09-06T22:18:37.429Z,99.90
2022-09-06T22:21:07.671Z,99.90
2022-09-06T22:23:38.707Z,99.90
2022-09-06T22:26:08.935Z,99.90
2022-09-06T22:28:36.516Z,99.90
2022-09-06T22:31:05.771Z,99.90
2022-09-06T22:33:33.171Z,99.90
2022-09-06T22:36:02.249Z,99.90
2022-09-06T22:38:31.197Z,99.90
2022-09-06T22:40:58.800Z,99.90
2022-09-06T22:43:28.950Z,99.90
2022-09-06T22:46:04.528Z,99.90
2022-09-06T22:48:31.917Z,99.90
2022-09-06T22:51:01.315Z,99.90
2022-09-06T22:53:29.899Z,99.90
2022-09-06T22:55:57.328Z,99.90
2022-09-06T22:58:26.954Z,99.90
2022-09-06T23:00:54.826Z,99.90
2022-09-06T23:03:22.877Z,99.90
2022-09-06T23:05:49.945Z,99.90
2022-09-06T23:08:22.087Z,99.90
2022-09-06T23:10:53.107Z,99.90
2022-09-06T23:13:20.182Z,99.90
2022-09-06T23:15:47.774Z,99.90
2022-09-06T23:18:15.350Z,99.90
2022-09-06T23:20:42.516Z,99.90
2022-09-06T23:23:09.722Z,99.90
2022-09-06T23:25:41.136Z,99.90
2022-09-06T23:28:08.322Z,99.90
2022-09-06T23:30:37.817Z,99.90
2022-09-06T23:33:05.353Z,99.90
2022-09-06T23:35:32.570Z,99.90
2022-09-06T23:37:59.724Z,99.90
2022-09-06T23:40:29.990Z,99.90
2022-09-06T23:43:04.143Z,99.90
2022-09-06T23:45:31.246Z,99.90
2022-09-06T23:47:58.271Z,99.90
2022-09-06T23:50:25.482Z,99.90
2022-09-06T23:52:52.548Z,99.90
2022-09-06T23:55:19.690Z,99.90
2022-09-06T23:57:52.726Z,99.90
